Time;durP1;ratioP1;P1;durP2;ratioP2;P2;SDS_P1;SDS_P2;PMS_P1;PMS_P2;Temp;Humidity;BMP_temperature;BMP_pressure;BME280_temperature;BME280_humidity;BME280_pressure;Samples;Min_cycle;Max_cycle;Signal;HPM_P1;HPM_P2
2023/07/24 00:01:26;;;;;;;3.58;2.17;;;;;;;;;;5089280;28;20773;-67
2023/07/24 00:03:56;;;;;;;3.17;2.30;;;;;;;;;;5090172;28;20542;-67
2023/07/24 00:06:22;;;;;;;3.20;2.10;;;;;;;;;;5089874;28;20055;-68
2023/07/24 00:08:49;;;;;;;4.25;2.13;;;;;;;;;;5090083;28;20044;-66
2023/07/24 00:11:15;;;;;;;5.25;2.08;;;;;;;;;;5089711;28;20054;-67
2023/07/24 00:13:42;;;;;;;2.38;1.88;;;;;;;;;;5089778;28;20044;-66
2023/07/24 00:16:10;;;;;;;5.95;1.80;;;;;;;;;;5089922;28;20421;-67
2023/07/24 00:18:36;;;;;;;3.50;2.10;;;;;;;;;;5089351;28;20052;-67
2023/07/24 00:21:04;;;;;;;4.88;2.15;;;;;;;;;;5089893;28;20060;-67
2023/07/24 00:23:31;;;;;;;3.50;2.22;;;;;;;;;;5089672;28;20054;-66
2023/07/24 00:25:57;;;;;;;5.13;2.10;;;;;;;;;;5090744;28;20490;-67
2023/07/24 00:28:24;;;;;;;4.78;2.20;;;;;;;;;;5089631;28;20478;-67
2023/07/24 00:30:50;;;;;;;4.70;2.00;;;;;;;;;;5089786;28;20401;-67
2023/07/24 00:33:17;;;;;;;3.17;2.20;;;;;;;;;;5089604;28;20062;-67
2023/07/24 00:35:43;;;;;;;4.75;2.15;;;;;;;;;;5089871;28;20052;-67
2023/07/24 00:38:11;;;;;;;3.95;2.05;;;;;;;;;;5089491;28;20048;-67
2023/07/24 00:40:38;;;;;;;8.23;2.25;;;;;;;;;;5091822;28;20048;-67
2023/07/24 00:43:05;;;;;;;5.05;2.20;;;;;;;;;;5092699;28;20048;-68
2023/07/24 00:45:31;;;;;;;3.50;2.30;;;;;;;;;;5093707;28;20481;-67
2023/07/24 00:47:59;;;;;;;4.00;2.42;;;;;;;;;;5093576;28;20048;-67
2023/07/24 00:50:26;;;;;;;5.13;2.45;;;;;;;;;;5092645;28;20044;-67
2023/07/24 00:52:52;;;;;;;7.22;2.42;;;;;;;;;;5093730;28;20074;-66
2023/07/24 00:55:20;;;;;;;3.75;2.55;;;;;;;;;;5092836;28;20048;-65
2023/07/24 00:57:47;;;;;;;4.03;2.42;;;;;;;;;;5092969;28;20048;-66
2023/07/24 01:00:14;;;;;;;4.57;2.45;;;;;;;;;;5092537;28;20048;-66
2023/07/24 01:02:41;;;;;;;4.28;2.50;;;;;;;;;;5093251;28;20053;-67
2023/07/24 01:05:09;;;;;;;5.03;2.83;;;;;;;;;;5092952;28;20411;-67
2023/07/24 01:07:36;;;;;;;3.50;2.83;;;;;;;;;;5093039;28;20050;-67
2023/07/24 01:10:02;;;;;;;3.75;2.28;;;;;;;;;;5092078;28;20054;-68
2023/07/24 01:12:36;;;;;;;3.85;2.40;;;;;;;;;;5093069;28;20052;-66
2023/07/24 01:15:11;;;;;;;2.95;2.53;;;;;;;;;;5092720;28;20062;-66
2023/07/24 01:17:41;;;;;;;4.30;2.65;;;;;;;;;;5093158;28;20486;-67
2023/07/24 01:20:12;;;;;;;4.80;2.30;;;;;;;;;;5092105;28;20537;-67
2023/07/24 01:22:47;;;;;;;5.10;2.40;;;;;;;;;;5092648;28;20048;-66
2023/07/24 01:25:23;;;;;;;2.90;2.20;;;;;;;;;;5092307;28;20065;-66
2023/07/24 01:27:51;;;;;;;5.22;2.90;;;;;;;;;;5092692;28;20058;-67
2023/07/24 01:30:19;;;;;;;4.55;2.60;;;;;;;;;;5092441;28;20052;-67
2023/07/24 01:32:46;;;;;;;5.05;2.63;;;;;;;;;;5092871;28;20055;-66
2023/07/24 01:35:13;;;;;;;5.82;2.55;;;;;;;;;;5092422;28;20040;-67
2023/07/24 01:37:40;;;;;;;4.78;2.45;;;;;;;;;;5092148;28;20486;-67
2023/07/24 01:40:08;;;;;;;4.03;2.35;;;;;;;;;;5092143;28;20051;-68
2023/07/24 01:42:36;;;;;;;2.78;2.40;;;;;;;;;;5091947;28;20381;-67
2023/07/24 01:45:05;;;;;;;3.10;2.45;;;;;;;;;;5092472;28;20067;-67
2023/07/24 01:47:31;;;;;;;4.35;2.30;;;;;;;;;;5091726;28;20056;-67
2023/07/24 01:49:58;;;;;;;4.20;2.42;;;;;;;;;;5091741;28;20055;-67
2023/07/24 01:52:25;;;;;;;4.85;2.40;;;;;;;;;;5090906;28;20413;-67
2023/07/24 01:54:51;;;;;;;6.07;2.13;;;;;;;;;;5092268;28;20131;-68
2023/07/24 01:57:18;;;;;;;3.75;2.53;;;;;;;;;;5091657;28;20390;-67
2023/07/24 01:59:44;;;;;;;6.38;2.70;;;;;;;;;;5091809;28;20319;-67
2023/07/24 02:02:12;;;;;;;4.55;2.63;;;;;;;;;;5091586;28;20465;-66
2023/07/24 02:04:39;;;;;;;4.55;2.70;;;;;;;;;;5092026;28;20048;-67
2023/07/24 02:07:06;;;;;;;5.78;2.53;;;;;;;;;;5091817;28;20048;-68
2023/07/24 02:09:32;;;;;;;5.10;2.50;;;;;;;;;;5091366;28;20501;-67
2023/07/24 02:11:59;;;;;;;2.72;2.20;;;;;;;;;;5091654;28;20051;-67
2023/07/24 02:14:26;;;;;;;5.47;2.58;;;;;;;;;;5091400;28;20055;-66
2023/07/24 02:16:53;;;;;;;5.30;2.20;;;;;;;;;;5091837;28;20101;-66
2023/07/24 02:19:21;;;;;;;3.80;2.40;;;;;;;;;;5091208;28;20048;-66
2023/07/24 02:21:47;;;;;;;5.57;2.45;;;;;;;;;;5091164;28;20134;-67
2023/07/24 02:24:14;;;;;;;4.95;2.35;;;;;;;;;;5091286;28;20076;-66
2023/07/24 02:26:40;;;;;;;3.45;2.15;;;;;;;;;;5091853;28;20040;-67
2023/07/24 02:29:07;;;;;;;3.65;2.33;;;;;;;;;;5091060;28;20050;-67
2023/07/24 02:31:34;;;;;;;5.45;2.50;;;;;;;;;;5091392;28;20134;-67
2023/07/24 02:34:01;;;;;;;5.40;3.05;;;;;;;;;;5091483;28;20055;-67
2023/07/24 02:36:29;;;;;;;5.95;2.67;;;;;;;;;;5091862;28;20048;-66
2023/07/24 02:38:55;;;;;;;3.80;2.33;;;;;;;;;;5091338;28;20040;-67
2023/07/24 02:41:22;;;;;;;4.18;2.67;;;;;;;;;;5091004;28;20429;-67
2023/07/24 02:43:49;;;;;;;5.65;2.50;;;;;;;;;;5090946;28;20044;-66
2023/07/24 02:46:15;;;;;;;5.45;2.80;;;;;;;;;;5091133;28;20044;-67
2023/07/24 02:48:42;;;;;;;4.32;2.75;;;;;;;;;;5090928;28;20051;-66
2023/07/24 02:51:08;;;;;;;5.18;2.63;;;;;;;;;;5090402;28;20058;-67
2023/07/24 02:53:36;;;;;;;3.30;2.67;;;;;;;;;;5090978;28;20048;-67
2023/07/24 02:56:03;;;;;;;4.45;2.85;;;;;;;;;;5090243;28;20048;-67
2023/07/24 02:58:30;;;;;;;5.20;2.72;;;;;;;;;;5090729;28;20409;-67
2023/07/24 03:01:03;;;;;;;3.97;2.60;;;;;;;;;;5089902;28;20050;-66
2023/07/24 03:03:30;;;;;;;4.15;2.85;;;;;;;;;;5090657;28;20090;-67
2023/07/24 03:05:56;;;;;;;6.55;2.97;;;;;;;;;;5090368;28;20048;-67
2023/07/24 03:08:23;;;;;;;3.75;2.80;;;;;;;;;;5090768;28;20048;-67
2023/07/24 03:10:51;;;;;;;6.20;2.97;;;;;;;;;;5090237;28;20054;-68
2023/07/24 03:13:18;;;;;;;3.67;2.85;;;;;;;;;;5090461;28;20066;-66
2023/07/24 03:15:51;;;;;;;4.30;2.83;;;;;;;;;;5090124;28;20050;-67
2023/07/24 03:18:18;;;;;;;4.45;2.67;;;;;;;;;;5090716;28;20059;-67
2023/07/24 03:20:44;;;;;;;5.72;3.33;;;;;;;;;;5089850;28;20455;-67
2023/07/24 03:23:11;;;;;;;5.03;2.92;;;;;;;;;;5090550;28;20044;-67
2023/07/24 03:25:38;;;;;;;3.65;2.70;;;;;;;;;;5090374;28;20044;-66
2023/07/24 03:28:06;;;;;;;6.22;3.10;;;;;;;;;;5091049;28;20090;-66
2023/07/24 03:30:32;;;;;;;4.38;3.00;;;;;;;;;;5091490;28;20044;-67
2023/07/24 03:33:00;;;;;;;5.10;2.78;;;;;;;;;;5091155;28;20630;-68
2023/07/24 03:35:27;;;;;;;4.20;2.85;;;;;;;;;;5091649;28;20059;-66
2023/07/24 03:37:54;;;;;;;4.28;3.10;;;;;;;;;;5089884;28;20044;-66
2023/07/24 03:40:20;;;;;;;4.55;2.85;;;;;;;;;;5090104;28;20048;-68
2023/07/24 03:42:47;;;;;;;3.90;2.70;;;;;;;;;;5090038;28;20044;-68
2023/07/24 03:45:14;;;;;;;8.15;3.00;;;;;;;;;;5090838;28;20401;-67
2023/07/24 03:47:41;;;;;;;5.38;2.90;;;;;;;;;;5090059;28;20501;-67
2023/07/24 03:50:08;;;;;;;4.25;3.47;;;;;;;;;;5090335;28;20044;-67
2023/07/24 03:52:35;;;;;;;6.25;3.42;;;;;;;;;;5089670;28;20405;-67
2023/07/24 03:55:02;;;;;;;4.03;2.90;;;;;;;;;;5101521;22;20520;-66
2023/07/24 03:57:28;;;;;;;5.82;2.97;;;;;;;;;;5089356;28;20055;-65
2023/07/24 03:59:55;;;;;;;5.82;3.17;;;;;;;;;;5090028;28;20052;-66
2023/07/24 04:02:24;;;;;;;4.78;2.88;;;;;;;;;;5090536;28;20051;-66
2023/07/24 04:04:50;;;;;;;4.30;3.00;;;;;;;;;;5089547;28;20406;-66
2023/07/24 04:07:17;;;;;;;8.18;3.17;;;;;;;;;;5089749;28;20130;-66
2023/07/24 04:09:43;;;;;;;5.57;3.33;;;;;;;;;;5089563;28;20039;-66
2023/07/24 04:12:10;;;;;;;5.85;3.10;;;;;;;;;;5090189;28;20063;-66
2023/07/24 04:14:37;;;;;;;4.78;2.92;;;;;;;;;;5090400;28;20040;-66
2023/07/24 04:17:03;;;;;;;4.43;2.95;;;;;;;;;;5094030;28;20493;-66
2023/07/24 04:19:31;;;;;;;4.35;2.83;;;;;;;;;;5093223;28;20056;-66
2023/07/24 04:21:58;;;;;;;4.03;2.60;;;;;;;;;;5094059;28;20050;-66
2023/07/24 04:24:24;;;;;;;3.95;2.88;;;;;;;;;;5093659;28;20078;-66
2023/07/24 04:26:51;;;;;;;3.60;2.80;;;;;;;;;;5093755;28;20048;-66
2023/07/24 04:29:17;;;;;;;4.30;3.00;;;;;;;;;;5093356;28;20048;-66
2023/07/24 04:31:44;;;;;;;4.15;3.00;;;;;;;;;;5093616;28;20058;-66
2023/07/24 04:34:10;;;;;;;5.88;3.17;;;;;;;;;;5093256;28;20498;-67
2023/07/24 04:36:38;;;;;;;4.10;3.00;;;;;;;;;;5093335;28;20489;-66
2023/07/24 04:39:04;;;;;;;5.55;3.03;;;;;;;;;;5093646;28;20048;-65
2023/07/24 04:41:31;;;;;;;4.05;2.33;;;;;;;;;;5092753;28;20048;-66
2023/07/24 04:43:57;;;;;;;4.30;2.95;;;;;;;;;;5093485;28;20046;-66
2023/07/24 04:46:24;;;;;;;6.35;3.10;;;;;;;;;;5093289;28;20044;-66
2023/07/24 04:48:50;;;;;;;5.18;2.60;;;;;;;;;;5093437;28;20040;-66
2023/07/24 04:51:18;;;;;;;4.65;2.85;;;;;;;;;;5092981;28;20062;-65
2023/07/24 04:53:46;;;;;;;4.40;2.92;;;;;;;;;;5093562;28;20044;-66
2023/07/24 04:56:12;;;;;;;4.72;2.65;;;;;;;;;;5092968;28;20048;-66
2023/07/24 04:58:39;;;;;;;3.92;2.70;;;;;;;;;;5093273;28;20490;-65
2023/07/24 05:01:06;;;;;;;5.72;2.88;;;;;;;;;;5092339;28;20044;-66
2023/07/24 05:03:33;;;;;;;6.32;2.97;;;;;;;;;;5092891;28;20131;-66
2023/07/24 05:05:59;;;;;;;6.88;3.15;;;;;;;;;;5092832;28;20519;-67
2023/07/24 05:08:26;;;;;;;4.43;3.15;;;;;;;;;;5092969;28;20046;-66
2023/07/24 05:10:58;;;;;;;3.88;2.90;;;;;;;;;;5092598;28;20047;-66
2023/07/24 05:13:25;;;;;;;;;;;;;;;;;;5093804;28;20081;-66
2023/07/24 05:15:51;;;;;;;4.10;2.83;;;;;;;;;;5093181;28;20403;-67
2023/07/24 05:18:18;;;;;;;3.92;3.15;;;;;;;;;;5092359;28;20483;-67
2023/07/24 05:20:46;;;;;;;4.97;3.03;;;;;;;;;;5092401;28;20048;-67
2023/07/24 05:23:13;;;;;;;6.80;3.42;;;;;;;;;;5092474;28;20048;-67
2023/07/24 05:25:40;;;;;;;6.07;3.13;;;;;;;;;;5092360;28;20460;-66
2023/07/24 05:28:08;;;;;;;5.78;3.08;;;;;;;;;;5091556;28;20115;-67
2023/07/24 05:30:34;;;;;;;4.65;3.35;;;;;;;;;;5092094;28;20058;-67
2023/07/24 05:33:01;;;;;;;4.28;2.83;;;;;;;;;;5092421;28;20386;-66
2023/07/24 05:35:28;;;;;;;5.03;3.00;;;;;;;;;;5092653;28;20489;-67
2023/07/24 05:37:54;;;;;;;5.22;3.10;;;;;;;;;;5092376;28;20040;-67
2023/07/24 05:40:21;;;;;;;4.55;3.08;;;;;;;;;;5092216;28;20055;-66
2023/07/24 05:42:47;;;;;;;6.28;3.67;;;;;;;;;;5092246;28;20493;-67
2023/07/24 05:45:15;;;;;;;5.45;2.92;;;;;;;;;;5092119;28;20051;-67
2023/07/24 05:47:42;;;;;;;6.22;3.38;;;;;;;;;;5092025;28;20040;-67
2023/07/24 05:50:09;;;;;;;6.18;3.67;;;;;;;;;;5092074;28;20044;-66
2023/07/24 05:52:35;;;;;;;4.28;3.35;;;;;;;;;;5092286;28;20044;-66
2023/07/24 05:55:02;;;;;;;6.13;3.47;;;;;;;;;;5092162;28;20040;-67
2023/07/24 05:57:29;;;;;;;6.00;3.53;;;;;;;;;;5092380;28;20048;-66
2023/07/24 05:59:56;;;;;;;5.18;3.10;;;;;;;;;;5091771;28;20054;-66
2023/07/24 06:02:24;;;;;;;5.65;3.08;;;;;;;;;;5092403;28;20044;-67
2023/07/24 06:04:50;;;;;;;5.05;3.40;;;;;;;;;;5091720;28;20153;-67
2023/07/24 06:07:17;;;;;;;5.47;3.60;;;;;;;;;;5091945;28;20408;-67
2023/07/24 06:09:43;;;;;;;7.60;3.47;;;;;;;;;;5090981;28;20052;-67
2023/07/24 06:12:10;;;;;;;5.35;3.38;;;;;;;;;;5091810;28;20044;-66
2023/07/24 06:14:36;;;;;;;5.40;4.38;;;;;;;;;;5091339;28;20048;-66
2023/07/24 06:17:03;;;;;;;5.97;3.30;;;;;;;;;;5091618;28;20048;-66
2023/07/24 06:19:31;;;;;;;6.18;3.38;;;;;;;;;;5091042;28;20051;-67
2023/07/24 06:21:57;;;;;;;8.80;3.50;;;;;;;;;;5090977;28;20048;-66
2023/07/24 06:24:24;;;;;;;5.60;3.40;;;;;;;;;;5091125;28;20040;-68
2023/07/24 06:26:51;;;;;;;5.60;3.10;;;;;;;;;;5090961;28;20044;-67
2023/07/24 06:29:18;;;;;;;3.85;2.85;;;;;;;;;;5091545;28;20095;-66
2023/07/24 06:31:44;;;;;;;4.22;3.17;;;;;;;;;;5091024;28;20078;-66
2023/07/24 06:34:11;;;;;;;5.93;3.70;;;;;;;;;;5091766;28;20478;-66
2023/07/24 06:36:39;;;;;;;5.55;3.10;;;;;;;;;;5091006;28;20071;-67
2023/07/24 06:39:05;;;;;;;4.07;3.33;;;;;;;;;;5091046;28;20040;-67
2023/07/24 06:41:32;;;;;;;6.97;3.47;;;;;;;;;;5090343;28;20055;-67
2023/07/24 06:43:59;;;;;;;6.25;3.53;;;;;;;;;;5090764;28;20079;-66
2023/07/24 06:46:25;;;;;;;5.32;3.38;;;;;;;;;;5088984;28;20537;-66
2023/07/24 06:48:52;;;;;;;5.82;3.35;;;;;;;;;;5089726;28;20052;-67
2023/07/24 06:51:19;;;;;;;4.72;3.40;;;;;;;;;;5089223;28;20048;-67
2023/07/24 06:53:46;;;;;;;5.15;2.97;;;;;;;;;;5090067;28;20058;-68
2023/07/24 06:56:13;;;;;;;7.32;3.08;;;;;;;;;;5090005;28;20051;-68
2023/07/24 06:58:40;;;;;;;5.68;2.70;;;;;;;;;;5087087;28;20040;-68
2023/07/24 07:01:07;;;;;;;3.72;2.42;;;;;;;;;;5076063;28;20055;-68
2023/07/24 07:03:34;;;;;;;5.40;3.00;;;;;;;;;;5075217;28;20052;-68
2023/07/24 07:06:01;;;;;;;4.32;2.60;;;;;;;;;;5084024;28;20646;-68
2023/07/24 07:08:28;;;;;;;5.03;2.60;;;;;;;;;;5067093;28;20052;-68
2023/07/24 07:10:57;;;;;;;6.30;3.20;;;;;;;;;;5075386;28;20059;-67
2023/07/24 07:13:23;;;;;;;5.05;2.90;;;;;;;;;;5069341;28;20047;-66
2023/07/24 07:15:50;;;;;;;4.57;3.00;;;;;;;;;;5078981;28;20160;-65
2023/07/24 07:18:18;;;;;;;5.38;3.30;;;;;;;;;;5083128;28;20044;-66
2023/07/24 07:20:47;;;;;;;4.93;3.08;;;;;;;;;;5067502;28;20059;-66
2023/07/24 07:23:14;;;;;;;4.70;2.67;;;;;;;;;;5071591;28;20049;-66
2023/07/24 07:25:40;;;;;;;5.68;3.30;;;;;;;;;;5076863;28;20389;-66
2023/07/24 07:28:08;;;;;;;6.45;3.53;;;;;;;;;;5067669;28;20052;-66
2023/07/24 07:30:35;;;;;;;5.43;3.15;;;;;;;;;;5076786;28;20044;-66
2023/07/24 07:33:01;;;;;;;4.50;3.00;;;;;;;;;;5068375;28;20051;-66
2023/07/24 07:35:28;;;;;;;5.13;3.35;;;;;;;;;;5071401;28;20055;-66
2023/07/24 07:37:55;;;;;;;4.05;2.83;;;;;;;;;;5071547;28;20476;-66
2023/07/24 07:40:23;;;;;;;5.00;2.95;;;;;;;;;;5066696;28;20043;-67
2023/07/24 07:42:49;;;;;;;6.10;3.83;;;;;;;;;;5066928;28;20222;-67
2023/07/24 07:45:17;;;;;;;5.38;3.42;;;;;;;;;;5076653;28;20408;-67
2023/07/24 07:47:44;;;;;;;6.38;3.55;;;;;;;;;;5067131;28;20044;-67
2023/07/24 07:50:11;;;;;;;4.60;3.17;;;;;;;;;;5081263;28;20040;-67
2023/07/24 07:52:37;;;;;;;5.93;3.47;;;;;;;;;;5076073;28;20498;-66
2023/07/24 07:55:06;;;;;;;6.05;3.13;;;;;;;;;;5080424;28;20040;-67
2023/07/24 07:57:32;;;;;;;7.20;3.42;;;;;;;;;;5074533;28;20062;-67
2023/07/24 07:59:59;;;;;;;4.07;2.97;;;;;;;;;;5073290;28;20048;-68
2023/07/24 08:02:27;;;;;;;4.57;3.22;;;;;;;;;;5072589;28;20041;-67
2023/07/24 08:04:53;;;;;;;5.80;3.70;;;;;;;;;;5070144;28;20119;-66
2023/07/24 08:07:20;;;;;;;6.20;3.70;;;;;;;;;;5066745;28;20063;-66
2023/07/24 08:09:47;;;;;;;5.78;3.65;;;;;;;;;;5065631;28;20044;-68
2023/07/24 08:12:13;;;;;;;6.00;3.85;;;;;;;;;;5068904;28;20047;-68
2023/07/24 08:14:40;;;;;;;7.03;3.55;;;;;;;;;;5064549;28;20044;-67
2023/07/24 08:17:06;;;;;;;5.00;3.75;;;;;;;;;;5070335;28;20040;-68
2023/07/24 08:19:35;;;;;;;7.32;3.85;;;;;;;;;;5073148;28;20050;-68
2023/07/24 08:22:01;;;;;;;5.90;3.40;;;;;;;;;;5080604;28;20041;-69
2023/07/24 08:24:28;;;;;;;5.63;3.65;;;;;;;;;;5069661;28;20055;-68
2023/07/24 08:26:55;;;;;;;7.50;3.50;;;;;;;;;;5074367;28;20460;-69
2023/07/24 08:29:22;;;;;;;5.68;3.45;;;;;;;;;;5072290;28;20154;-69
2023/07/24 08:31:49;;;;;;;6.43;3.40;;;;;;;;;;5080218;28;20105;-68
2023/07/24 08:34:16;;;;;;;5.93;3.20;;;;;;;;;;5080023;28;20091;-67
2023/07/24 08:36:44;;;;;;;8.52;3.75;;;;;;;;;;5083798;28;20054;-67
2023/07/24 08:39:11;;;;;;;5.43;3.75;;;;;;;;;;5084613;28;20040;-67
2023/07/24 08:41:38;;;;;;;6.15;3.97;;;;;;;;;;5086969;28;20131;-66
2023/07/24 08:44:07;;;;;;;5.22;3.47;;;;;;;;;;5085403;28;20044;-69
2023/07/24 08:46:36;;;;;;;6.43;3.47;;;;;;;;;;5085943;28;20063;-68
2023/07/24 08:49:04;;;;;;;5.88;3.78;;;;;;;;;;5079902;28;20037;-67
2023/07/24 08:51:32;;;;;;;4.28;3.25;;;;;;;;;;5086865;28;20044;-67
2023/07/24 08:54:03;;;;;;;4.82;3.45;;;;;;;;;;5076672;28;20479;-68
2023/07/24 08:56:30;;;;;;;6.23;3.53;;;;;;;;;;5073156;28;20076;-67
2023/07/24 08:58:57;;;;;;;5.43;3.50;;;;;;;;;;5078512;28;20040;-69
2023/07/24 09:01:23;;;;;;;6.18;3.42;;;;;;;;;;5084575;28;20387;-68
2023/07/24 09:03:50;;;;;;;6.20;3.50;;;;;;;;;;5071701;28;20041;-67
2023/07/24 09:06:16;;;;;;;4.95;3.28;;;;;;;;;;5080660;28;20425;-69
2023/07/24 09:08:44;;;;;;;6.03;3.78;;;;;;;;;;5091726;28;20481;-69
2023/07/24 09:11:14;;;;;;;4.43;2.90;;;;;;;;;;5075331;28;20051;-68
2023/07/24 09:13:43;;;;;;;4.63;3.25;;;;;;;;;;5071644;28;20040;-68
2023/07/24 09:16:10;;;;;;;7.15;3.22;;;;;;;;;;5070331;28;20040;-67
2023/07/24 09:18:40;;;;;;;4.22;2.58;;;;;;;;;;5071411;28;20072;-67
2023/07/24 09:21:07;;;;;;;5.18;3.20;;;;;;;;;;5071248;28;20074;-67
2023/07/24 09:23:34;;;;;;;5.10;3.10;;;;;;;;;;5083061;28;20044;-68
2023/07/24 09:26:06;;;;;;;6.07;3.15;;;;;;;;;;5072744;28;20048;-68
2023/07/24 09:28:34;;;;;;;4.50;3.13;;;;;;;;;;5080928;28;20421;-67
2023/07/24 09:31:01;;;;;;;6.85;3.40;;;;;;;;;;5081842;28;20419;-67
2023/07/24 09:33:36;;;;;;;5.10;3.53;;;;;;;;;;5080093;28;20053;-67
2023/07/24 09:36:04;;;;;;;5.65;3.45;;;;;;;;;;5076735;28;20051;-66
2023/07/24 09:38:31;;;;;;;6.15;3.63;;;;;;;;;;5080894;28;20049;-70
2023/07/24 09:40:58;;;;;;;4.50;2.70;;;;;;;;;;5083868;28;20048;-67
2023/07/24 09:43:26;;;;;;;4.57;3.20;;;;;;;;;;5073244;28;20045;-67
2023/07/24 09:45:55;;;;;;;3.22;2.83;;;;;;;;;;5073619;28;20079;-66
2023/07/24 09:48:24;;;;;;;3.30;2.97;;;;;;;;;;5072544;28;20055;-67
2023/07/24 09:50:55;;;;;;;4.80;3.15;;;;;;;;;;5070561;28;20041;-67
2023/07/24 09:53:27;;;;;;;4.32;3.05;;;;;;;;;;5064903;28;20189;-66
2023/07/24 09:55:57;;;;;;;4.15;2.80;;;;;;;;;;5104515;22;20066;-82
2023/07/24 09:58:25;;;;;;;3.97;2.80;;;;;;;;;;5113774;27;20040;-80
2023/07/24 10:00:54;;;;;;;4.47;3.13;;;;;;;;;;5117926;27;20039;-83
2023/07/24 10:03:22;;;;;;;5.88;3.10;;;;;;;;;;5118447;27;20062;-82
2023/07/24 10:05:50;;;;;;;5.47;2.90;;;;;;;;;;5117802;27;20044;-86
2023/07/24 10:08:30;;;;;;;4.28;3.15;;;;;;;;;;5131986;27;20035;-84
2023/07/24 10:10:58;;;;;;;7.07;2.53;;;;;;;;;;5119100;27;20040;-83
2023/07/24 10:13:27;;;;;;;7.55;2.70;;;;;;;;;;5114647;27;20047;-83
2023/07/24 10:15:56;;;;;;;3.88;2.72;;;;;;;;;;5110191;27;20044;-84
2023/07/24 10:18:28;;;;;;;3.60;2.75;;;;;;;;;;5105743;27;20051;-83
2023/07/24 10:21:03;;;;;;;5.10;2.40;;;;;;;;;;5133035;27;20500;-83
2023/07/24 10:23:31;;;;;;;2.85;2.50;;;;;;;;;;5111880;27;20131;-84
2023/07/24 10:26:04;;;;;;;4.28;2.60;;;;;;;;;;5130077;27;20046;-86
2023/07/24 10:28:38;;;;;;;4.95;2.97;;;;;;;;;;5113464;27;20083;-87
2023/07/24 10:31:08;;;;;;;3.47;2.60;;;;;;;;;;5115335;27;20051;-86
2023/07/24 10:33:38;;;;;;;3.83;2.50;;;;;;;;;;5115763;27;20056;-85
2023/07/24 10:36:08;;;;;;;3.63;2.60;;;;;;;;;;5109084;27;20054;-84
2023/07/24 10:38:36;;;;;;;5.20;2.42;;;;;;;;;;5117006;27;20040;-86
2023/07/24 10:41:04;;;;;;;3.42;2.40;;;;;;;;;;5102718;27;20054;-86
2023/07/24 10:43:41;;;;;;;3.92;2.22;;;;;;;;;;5111224;28;20646;-87
2023/07/24 10:46:10;;;;;;;3.28;2.20;;;;;;;;;;5108436;27;20063;-86
2023/07/24 10:48:36;;;;;;;4.68;2.60;;;;;;;;;;5117882;27;20493;-86
2023/07/24 10:51:08;;;;;;;4.05;2.33;;;;;;;;;;5114366;27;20047;-86
2023/07/24 10:53:36;;;;;;;5.05;2.00;;;;;;;;;;5094403;28;20051;-88
2023/07/24 10:56:03;;;;;;;5.78;2.28;;;;;;;;;;5093756;28;20052;-86
2023/07/24 10:58:32;;;;;;;3.55;2.10;;;;;;;;;;5096211;28;20686;-87
2023/07/24 11:00:59;;;;;;;2.40;1.90;;;;;;;;;;5123859;27;20047;-87
2023/07/24 11:03:28;;;;;;;2.53;2.00;;;;;;;;;;5111842;27;20138;-86
2023/07/24 11:05:55;;;;;;;3.50;2.28;;;;;;;;;;5115161;27;20035;-85
2023/07/24 11:08:22;;;;;;;3.72;2.20;;;;;;;;;;5118736;27;20052;-87
2023/07/24 11:10:49;;;;;;;4.80;2.17;;;;;;;;;;5113909;28;20050;-87
2023/07/24 11:13:16;;;;;;;2.85;1.85;;;;;;;;;;5103450;28;20059;-88
2023/07/24 11:15:44;;;;;;;3.65;2.30;;;;;;;;;;5094298;28;20044;-87
2023/07/24 11:18:11;;;;;;;4.43;2.20;;;;;;;;;;5107847;28;20039;-86
2023/07/24 11:20:43;;;;;;;3.60;2.03;;;;;;;;;;5113820;28;20051;-87
2023/07/24 11:23:10;;;;;;;2.65;1.95;;;;;;;;;;5126605;27;20638;-88
2023/07/24 11:25:37;;;;;;;3.58;2.13;;;;;;;;;;5116126;27;20039;-86
2023/07/24 11:28:07;;;;;;;2.25;1.90;;;;;;;;;;5108765;27;20035;-84
2023/07/24 11:30:34;;;;;;;2.55;1.83;;;;;;;;;;5102969;28;20052;-84
2023/07/24 11:33:03;;;;;;;2.45;2.20;;;;;;;;;;5115065;27;20050;-85
2023/07/24 11:35:49;;;;;;;5.13;1.90;;;;;;;;;;5118340;27;20050;-86
2023/07/24 11:38:17;;;;;;;3.00;2.25;;;;;;;;;;5122908;27;20039;-87
2023/07/24 11:40:45;;;;;;;3.95;2.13;;;;;;;;;;5108742;27;20044;-86
2023/07/24 11:43:19;;;;;;;2.30;1.83;;;;;;;;;;5126506;27;20051;-83
2023/07/24 11:45:51;;;;;;;4.20;1.88;;;;;;;;;;5127819;27;20096;-85
2023/07/24 11:48:19;;;;;;;1.98;1.70;;;;;;;;;;5129331;27;20050;-85
2023/07/24 11:50:47;;;;;;;4.55;2.17;;;;;;;;;;5119528;27;20046;-86
2023/07/24 11:53:23;;;;;;;3.70;2.20;;;;;;;;;;5114013;28;20058;-82
2023/07/24 11:55:51;;;;;;;4.70;2.25;;;;;;;;;;5109999;28;20046;-85
2023/07/24 11:58:19;;;;;;;5.25;2.40;;;;;;;;;;5121842;28;20231;-84
2023/07/24 12:00:52;;;;;;;3.90;2.03;;;;;;;;;;5128142;27;20490;-85
2023/07/24 12:03:21;;;;;;;2.92;1.90;;;;;;;;;;5131951;27;20047;-85
2023/07/24 12:05:48;;;;;;;5.20;2.20;;;;;;;;;;5119976;28;20482;-84
2023/07/24 12:08:16;;;;;;;5.07;2.33;;;;;;;;;;5116114;28;20494;-85
2023/07/24 12:10:44;;;;;;;3.13;2.50;;;;;;;;;;5095429;28;20101;-85
2023/07/24 12:13:11;;;;;;;3.95;2.40;;;;;;;;;;5114246;28;20455;-84
2023/07/24 12:15:38;;;;;;;2.88;2.30;;;;;;;;;;5104062;28;20046;-87
2023/07/24 12:18:05;;;;;;;3.45;2.42;;;;;;;;;;5120693;27;20048;-85
2023/07/24 12:20:32;;;;;;;3.30;2.03;;;;;;;;;;5112772;28;20146;-87
2023/07/24 12:22:59;;;;;;;4.32;2.03;;;;;;;;;;5129149;28;20043;-85
2023/07/24 12:25:26;;;;;;;5.03;2.47;;;;;;;;;;5134062;27;20498;-84
2023/07/24 12:27:53;;;;;;;4.25;2.13;;;;;;;;;;5136201;27;20039;-86
2023/07/24 12:30:20;;;;;;;6.43;2.08;;;;;;;;;;5117254;27;20119;-86
2023/07/24 12:32:47;;;;;;;2.63;2.05;;;;;;;;;;5124957;27;20055;-84
2023/07/24 12:35:13;;;;;;;2.08;1.60;;;;;;;;;;5134957;27;20049;-85
2023/07/24 12:37:40;;;;;;;1.60;1.48;;;;;;;;;;5139151;27;20047;-85
2023/07/24 12:40:08;;;;;;;2.42;1.60;;;;;;;;;;5133367;27;20564;-85
2023/07/24 12:42:34;;;;;;;2.30;1.58;;;;;;;;;;5113267;27;20251;-83
2023/07/24 12:45:03;;;;;;;1.95;1.30;;;;;;;;;;5123410;27;20410;-84
2023/07/24 12:47:30;;;;;;;1.77;1.30;;;;;;;;;;5118170;28;20043;-84
2023/07/24 12:49:57;;;;;;;2.58;1.55;;;;;;;;;;5118285;28;20442;-84
2023/07/24 12:52:24;;;;;;;1.52;1.40;;;;;;;;;;5113736;27;20327;-84
2023/07/24 12:54:50;;;;;;;1.55;1.40;;;;;;;;;;5097626;28;20048;-84
2023/07/24 12:57:17;;;;;;;2.25;1.40;;;;;;;;;;5098378;28;20131;-83
2023/07/24 12:59:43;;;;;;;3.10;1.48;;;;;;;;;;5097947;28;20052;-86
2023/07/24 13:02:11;;;;;;;2.78;1.50;;;;;;;;;;5096784;28;20044;-86
2023/07/24 13:04:38;;;;;;;2.38;1.20;;;;;;;;;;5096148;28;20131;-86
2023/07/24 13:07:05;;;;;;;1.35;1.20;;;;;;;;;;5096149;28;20052;-86
2023/07/24 13:09:32;;;;;;;1.48;1.13;;;;;;;;;;5096069;28;20028;-86
2023/07/24 13:11:58;;;;;;;1.70;1.30;;;;;;;;;;5098238;28;20048;-85
2023/07/24 13:14:25;;;;;;;1.70;1.00;;;;;;;;;;5097586;28;20059;-86
2023/07/24 13:16:51;;;;;;;4.28;1.10;;;;;;;;;;5105812;28;20044;-87
2023/07/24 13:19:19;;;;;;;1.33;1.17;;;;;;;;;;5116466;28;20048;-86
2023/07/24 13:21:47;;;;;;;1.55;1.17;;;;;;;;;;5116305;27;20509;-87
2023/07/24 13:24:13;;;;;;;2.03;1.10;;;;;;;;;;5116939;28;20130;-86
2023/07/24 13:26:40;;;;;;;1.55;1.10;;;;;;;;;;5117705;28;20058;-86
2023/07/24 13:29:07;;;;;;;1.90;1.20;;;;;;;;;;5117585;28;20047;-86
2023/07/24 13:31:33;;;;;;;2.08;1.08;;;;;;;;;;5116435;28;20043;-86
2023/07/24 13:34:00;;;;;;;1.65;1.10;;;;;;;;;;5115809;27;20423;-86
2023/07/24 13:36:28;;;;;;;1.85;1.10;;;;;;;;;;5116618;28;20048;-86
2023/07/24 13:38:54;;;;;;;3.05;1.23;;;;;;;;;;5117338;28;20442;-86
2023/07/24 13:41:21;;;;;;;1.52;1.30;;;;;;;;;;5116912;28;20050;-87
2023/07/24 13:43:48;;;;;;;1.20;1.10;;;;;;;;;;5117652;28;20051;-86
2023/07/24 13:46:14;;;;;;;2.65;1.10;;;;;;;;;;5117248;28;20058;-87
2023/07/24 13:48:41;;;;;;;1.88;1.10;;;;;;;;;;5116106;28;20054;-86
2023/07/24 13:51:07;;;;;;;1.20;1.10;;;;;;;;;;5117497;27;20050;-86
2023/07/24 13:53:35;;;;;;;2.38;1.20;;;;;;;;;;5118361;28;20056;-85
2023/07/24 13:56:02;;;;;;;1.55;1.10;;;;;;;;;;5111426;28;20044;-85
2023/07/24 13:58:29;;;;;;;1.60;1.30;;;;;;;;;;5097585;28;20051;-86
2023/07/24 14:00:55;;;;;;;1.80;1.20;;;;;;;;;;5097344;28;20050;-87
2023/07/24 14:03:24;;;;;;;1.77;1.33;;;;;;;;;;5097149;28;20055;-85
2023/07/24 14:05:50;;;;;;;1.67;1.20;;;;;;;;;;5096640;28;20044;-86
2023/07/24 14:08:17;;;;;;;1.40;1.30;;;;;;;;;;5096405;28;20040;-85
2023/07/24 14:10:45;;;;;;;1.35;1.02;;;;;;;;;;5096913;28;20565;-85
2023/07/24 14:13:11;;;;;;;1.63;1.20;;;;;;;;;;5099745;28;20516;-85
2023/07/24 14:15:38;;;;;;;2.42;0.93;;;;;;;;;;5100786;28;20059;-85
2023/07/24 14:18:04;;;;;;;1.95;1.10;;;;;;;;;;5100930;28;20043;-86
2023/07/24 14:20:31;;;;;;;1.88;1.05;;;;;;;;;;5102607;28;20059;-86
2023/07/24 14:22:58;;;;;;;1.52;1.13;;;;;;;;;;5099253;28;20135;-85
2023/07/24 14:25:25;;;;;;;3.53;1.30;;;;;;;;;;5099545;28;20058;-85
2023/07/24 14:27:52;;;;;;;1.63;0.95;;;;;;;;;;5098626;28;20044;-85
2023/07/24 14:30:19;;;;;;;1.63;1.02;;;;;;;;;;5099808;28;20040;-85
2023/07/24 14:32:45;;;;;;;1.10;0.98;;;;;;;;;;5099568;28;20051;-85
2023/07/24 14:35:12;;;;;;;1.33;1.10;;;;;;;;;;5099452;28;20056;-84
2023/07/24 14:37:39;;;;;;;2.17;1.50;;;;;;;;;;5099344;28;20040;-85
2023/07/24 14:40:07;;;;;;;1.75;1.33;;;;;;;;;;5097773;28;20052;-86
2023/07/24 14:42:33;;;;;;;3.45;1.17;;;;;;;;;;5098752;28;20054;-86
2023/07/24 14:45:02;;;;;;;1.60;1.35;;;;;;;;;;5099319;28;20044;-85